Toto, Indiana
Current Conditions -  °F | °C
As of 4:35 PM on Friday 28 Nov 2014 (Local Time) from KOXI Reporting Station
Clear Clear  
Wind Chill: 19°   Ceiling: Unl
Heat Index: 30°   Visibility: 10mi
Dew Point: 21°   Wind: 15mph
Humidity: 69%   Direction: 160°SSE
Pressure: 30.04"   Gusts: NA
Location:  41.2954°N, 86.6039°W
Report Text: KOXI 282235Z AUTO 16013KT 10SM CLR M01/M06 A3004 RMK AO1 T10111062
Loading
Personal Weather Stations






























Interactive Weather Map New forecast layout! Learn more

10-Day Weather Forecast

Advertisements
Track Severe Weather on mobile